createdAt,value
2022-10-06T00:00:29.116Z,4
2022-10-06T00:16:11.694Z,3.8
2022-10-06T00:31:54.615Z,4.4
2022-10-06T00:47:37.581Z,4
2022-10-06T01:03:20.565Z,3.9
2022-10-06T01:19:03.017Z,3.6
2022-10-06T01:34:45.026Z,3.6
2022-10-06T01:50:27.663Z,3.6
2022-10-06T02:06:10.459Z,4.1
2022-10-06T02:21:52.804Z,3.7
2022-10-06T02:37:35.027Z,4.4
2022-10-06T02:53:17.173Z,4.4
2022-10-06T03:08:59.731Z,4.3
2022-10-06T03:24:42.438Z,6.2
2022-10-06T03:40:25.230Z,3.7
2022-10-06T03:56:08.274Z,3.8
2022-10-06T04:11:51.090Z,4.19
2022-10-06T04:27:33.269Z,3
2022-10-06T04:43:15.598Z,0.9
2022-10-06T04:58:58.059Z,0.7
2022-10-06T05:14:40.215Z,0.8
2022-10-06T05:30:22.440Z,1.1
2022-10-06T05:46:04.626Z,0.8
2022-10-06T06:01:47.333Z,0.5
2022-10-06T06:17:30.269Z,0.4
2022-10-06T06:33:12.436Z,0.6
2022-10-06T06:48:54.639Z,0.5
2022-10-06T07:04:36.935Z,0.6
2022-10-06T07:20:19.711Z,0.6
2022-10-06T07:36:02.682Z,0.7
2022-10-06T07:51:44.926Z,0.7
2022-10-06T08:07:27.875Z,0.7
2022-10-06T08:23:10.078Z,0.7
2022-10-06T08:38:52.746Z,3.1
2022-10-06T08:54:34.980Z,2.09
2022-10-06T09:10:17.643Z,2.4
2022-10-06T09:25:59.827Z,2
2022-10-06T09:41:41.774Z,2
2022-10-06T09:57:24.202Z,1.8
2022-10-06T10:13:06.760Z,1.5
2022-10-06T10:28:49.560Z,1.8
2022-10-06T10:44:31.559Z,1.7
2022-10-06T11:00:14.463Z,1.5
2022-10-06T11:15:56.747Z,1.3
2022-10-06T11:31:38.807Z,1.6
2022-10-06T11:32:26.078Z,1.6
2022-10-06T11:48:08.801Z,1.1
2022-10-06T12:03:50.748Z,0.9
2022-10-06T12:19:33.442Z,1
2022-10-06T12:35:15.886Z,1.2
2022-10-06T12:50:58.729Z,1
2022-10-06T13:06:41.093Z,1.1
2022-10-06T13:22:23.762Z,1
2022-10-06T13:38:06.117Z,0.9
2022-10-06T13:53:48.434Z,1.1
2022-10-06T14:09:30.880Z,0.9
2022-10-06T14:25:13.552Z,1.3
2022-10-06T14:40:56.311Z,0.9
2022-10-06T14:56:38.399Z,0.9
2022-10-06T15:12:21.127Z,0.8
2022-10-06T15:28:03.462Z,0.9
2022-10-06T15:43:46.283Z,0.9
2022-10-06T15:59:29.254Z,1.1
2022-10-06T16:15:12.100Z,15.3
2022-10-06T16:30:54.212Z,26
2022-10-06T16:46:36.608Z,8.6
2022-10-06T17:02:18.765Z,4.19
2022-10-06T17:18:01.184Z,11.4
2022-10-06T17:33:43.367Z,4.19
2022-10-06T17:49:25.458Z,3.5
2022-10-06T18:05:08.369Z,3.9
2022-10-06T18:20:51.414Z,5
2022-10-06T18:36:34.407Z,4.69
2022-10-06T18:52:16.606Z,3.8
2022-10-06T19:07:59.102Z,4.19
2022-10-06T19:23:41.623Z,4.9
2022-10-06T19:39:23.862Z,5.4
2022-10-06T19:55:05.970Z,4.8
2022-10-06T20:10:48.811Z,4.9
2022-10-06T20:26:31.283Z,3.7
2022-10-06T20:42:13.781Z,3.5
2022-10-06T20:57:56.348Z,3.9
2022-10-06T21:13:39.244Z,4
2022-10-06T21:29:22.256Z,4.3
2022-10-06T21:45:04.572Z,4.19
2022-10-06T22:00:47.012Z,4.5
2022-10-06T22:16:29.553Z,4.1
2022-10-06T22:32:12.358Z,5.3
2022-10-06T22:47:55.378Z,5
2022-10-06T23:03:37.860Z,5.1
2022-10-06T23:19:20.066Z,5.4
2022-10-06T23:35:02.365Z,5.5
2022-10-06T23:50:45.453Z,6.9
